sensor_id;sensor_type;location;lat;lon;timestamp;pressure;altitude;pressure_sealevel;temperature;humidity
50852;BME280;43953;45.508;-122.806;2023-04-30T00:00:26;100381.78;;;31.03;23.63
50852;BME280;43953;45.508;-122.806;2023-04-30T00:00:58;100383.41;;;31.04;24.06
50852;BME280;43953;45.508;-122.806;2023-04-30T00:01:30;100376.31;;;31.07;24.44
50852;BME280;43953;45.508;-122.806;2023-04-30T00:02:02;100376.31;;;31.07;24.41
50852;BME280;43953;45.508;-122.806;2023-04-30T00:02:33;100377.03;;;31.03;23.46
50852;BME280;43953;45.508;-122.806;2023-04-30T00:03:05;100372.19;;;31.00;23.65
50852;BME280;43953;45.508;-122.806;2023-04-30T00:03:37;100374.50;;;30.98;23.57
50852;BME280;43953;45.508;-122.806;2023-04-30T00:04:09;100373.69;;;30.98;23.27
50852;BME280;43953;45.508;-122.806;2023-04-30T00:04:40;100376.47;;;30.98;23.00
50852;BME280;43953;45.508;-122.806;2023-04-30T00:05:12;100370.91;;;30.98;22.79
50852;BME280;43953;45.508;-122.806;2023-04-30T00:05:44;100374.50;;;30.98;22.82
50852;BME280;43953;45.508;-122.806;2023-04-30T00:06:15;100373.69;;;30.98;22.83
50852;BME280;43953;45.508;-122.806;2023-04-30T00:06:47;100374.03;;;30.96;23.10
50852;BME280;43953;45.508;-122.806;2023-04-30T00:07:19;100372.06;;;30.97;23.14
50852;BME280;43953;45.508;-122.806;2023-04-30T00:07:50;100369.28;;;30.97;23.19
50852;BME280;43953;45.508;-122.806;2023-04-30T00:08:22;100367.34;;;30.97;23.59
50852;BME280;43953;45.508;-122.806;2023-04-30T00:08:54;100372.91;;;30.97;23.64
50852;BME280;43953;45.508;-122.806;2023-04-30T00:09:26;100373.25;;;30.96;23.54
50852;BME280;43953;45.508;-122.806;2023-04-30T00:09:58;100368.47;;;30.96;23.93
50852;BME280;43953;45.508;-122.806;2023-04-30T00:10:29;100365.38;;;30.98;23.52
50852;BME280;43953;45.508;-122.806;2023-04-30T00:11:01;100370.56;;;30.99;23.58
50852;BME280;43953;45.508;-122.806;2023-04-30T00:11:33;100371.34;;;31.00;23.52
50852;BME280;43953;45.508;-122.806;2023-04-30T00:12:05;100370.56;;;30.99;23.51
50852;BME280;43953;45.508;-122.806;2023-04-30T00:12:37;100363.38;;;30.98;23.75
50852;BME280;43953;45.508;-122.806;2023-04-30T00:13:09;100366.97;;;30.99;24.03
50852;BME280;43953;45.508;-122.806;2023-04-30T00:13:40;100370.91;;;30.98;24.27
50852;BME280;43953;45.508;-122.806;2023-04-30T00:14:13;100372.06;;;30.97;24.38
50852;BME280;43953;45.508;-122.806;2023-04-30T00:14:44;100371.25;;;30.96;24.66
50852;BME280;43953;45.508;-122.806;2023-04-30T00:15:16;100362.13;;;30.96;24.53
50852;BME280;43953;45.508;-122.806;2023-04-30T00:15:48;100362.13;;;30.96;24.88
50852;BME280;43953;45.508;-122.806;2023-04-30T00:16:21;100364.09;;;30.95;24.92
50852;BME280;43953;45.508;-122.806;2023-04-30T00:16:53;100363.28;;;30.95;24.76
50852;BME280;43953;45.508;-122.806;2023-04-30T00:17:24;100362.50;;;30.94;24.51
50852;BME280;43953;45.508;-122.806;2023-04-30T00:17:56;100366.41;;;30.93;24.24
50852;BME280;43953;45.508;-122.806;2023-04-30T00:18:28;100368.84;;;30.95;24.66
50852;BME280;43953;45.508;-122.806;2023-04-30T00:18:59;100364.00;;;30.92;24.99
50852;BME280;43953;45.508;-122.806;2023-04-30T00:19:31;100368.75;;;30.91;24.94
50852;BME280;43953;45.508;-122.806;2023-04-30T00:20:04;100367.50;;;30.89;24.93
50852;BME280;43953;45.508;-122.806;2023-04-30T00:20:36;100367.03;;;30.87;24.81
50852;BME280;43953;45.508;-122.806;2023-04-30T00:21:07;100372.13;;;30.85;25.02
50852;BME280;43953;45.508;-122.806;2023-04-30T00:21:39;100362.19;;;30.83;24.92
50852;BME280;43953;45.508;-122.806;2023-04-30T00:22:11;100368.44;;;30.80;25.21
50852;BME280;43953;45.508;-122.806;2023-04-30T00:22:43;100371.09;;;30.77;24.76
50852;BME280;43953;45.508;-122.806;2023-04-30T00:23:15;100363.47;;;30.74;24.45
50852;BME280;43953;45.508;-122.806;2023-04-30T00:23:46;100364.63;;;30.73;24.08
50852;BME280;43953;45.508;-122.806;2023-04-30T00:24:18;100365.00;;;30.71;24.04
50852;BME280;43953;45.508;-122.806;2023-04-30T00:24:50;100363.00;;;30.72;24.50
50852;BME280;43953;45.508;-122.806;2023-04-30T00:25:22;100369.38;;;30.72;24.77
50852;BME280;43953;45.508;-122.806;2023-04-30T00:25:54;100361.84;;;30.73;24.54
50852;BME280;43953;45.508;-122.806;2023-04-30T00:26:26;100367.41;;;30.73;24.02
50852;BME280;43953;45.508;-122.806;2023-04-30T00:26:58;100371.81;;;30.74;24.17
50852;BME280;43953;45.508;-122.806;2023-04-30T00:27:30;100367.41;;;30.73;23.95
50852;BME280;43953;45.508;-122.806;2023-04-30T00:28:02;100369.38;;;30.72;24.05
50852;BME280;43953;45.508;-122.806;2023-04-30T00:28:33;100367.78;;;30.71;23.91
50852;BME280;43953;45.508;-122.806;2023-04-30T00:29:05;100363.00;;;30.72;23.98
50852;BME280;43953;45.508;-122.806;2023-04-30T00:29:37;100367.41;;;30.73;23.89
50852;BME280;43953;45.508;-122.806;2023-04-30T00:30:09;100357.13;;;30.73;23.86
50852;BME280;43953;45.508;-122.806;2023-04-30T00:30:41;100362.69;;;30.73;23.52
50852;BME280;43953;45.508;-122.806;2023-04-30T00:31:13;100364.63;;;30.73;23.22
50852;BME280;43953;45.508;-122.806;2023-04-30T00:31:45;100359.44;;;30.71;23.29
50852;BME280;43953;45.508;-122.806;2023-04-30T00:32:16;100358.97;;;30.69;23.35
50852;BME280;43953;45.508;-122.806;2023-04-30T00:32:48;100358.50;;;30.67;23.38
50852;BME280;43953;45.508;-122.806;2023-04-30T00:33:20;100361.66;;;30.66;23.24
50852;BME280;43953;45.508;-122.806;2023-04-30T00:33:52;100357.59;;;30.63;23.32
50852;BME280;43953;45.508;-122.806;2023-04-30T00:34:23;100366.75;;;30.64;23.16
50852;BME280;43953;45.508;-122.806;2023-04-30T00:34:55;100365.13;;;30.63;23.11
50852;BME280;43953;45.508;-122.806;2023-04-30T00:35:27;100369.88;;;30.62;23.09
50852;BME280;43953;45.508;-122.806;2023-04-30T00:35:59;100359.91;;;30.61;23.16
50852;BME280;43953;45.508;-122.806;2023-04-30T00:36:31;100356.34;;;30.60;23.23
50852;BME280;43953;45.508;-122.806;2023-04-30T00:37:02;100352.75;;;30.60;23.21
50852;BME280;43953;45.508;-122.806;2023-04-30T00:37:34;100360.63;;;30.58;23.32
50852;BME280;43953;45.508;-122.806;2023-04-30T00:38:06;100362.97;;;30.56;23.77
50852;BME280;43953;45.508;-122.806;2023-04-30T00:38:38;100362.13;;;30.55;23.45
50852;BME280;43953;45.508;-122.806;2023-04-30T00:39:10;100364.47;;;30.53;23.12
50852;BME280;43953;45.508;-122.806;2023-04-30T00:39:41;100364.00;;;30.51;23.01
50852;BME280;43953;45.508;-122.806;2023-04-30T00:40:13;100363.53;;;30.49;23.30
50852;BME280;43953;45.508;-122.806;2023-04-30T00:40:46;100362.31;;;30.47;23.49
50852;BME280;43953;45.508;-122.806;2023-04-30T00:41:17;100355.91;;;30.46;23.62
50852;BME280;43953;45.508;-122.806;2023-04-30T00:41:49;100361.47;;;30.46;23.60
50852;BME280;43953;45.508;-122.806;2023-04-30T00:42:21;100358.59;;;30.43;23.42
50852;BME280;43953;45.508;-122.806;2023-04-30T00:42:53;100362.53;;;30.42;23.64
50852;BME280;43953;45.508;-122.806;2023-04-30T00:43:26;100361.28;;;30.39;23.54
50852;BME280;43953;45.508;-122.806;2023-04-30T00:43:57;100361.63;;;30.37;23.71
50852;BME280;43953;45.508;-122.806;2023-04-30T00:44:29;100365.56;;;30.36;23.78
50852;BME280;43953;45.508;-122.806;2023-04-30T00:45:01;100363.50;;;30.33;23.78
50852;BME280;43953;45.508;-122.806;2023-04-30T00:45:32;100363.50;;;30.33;23.93
50852;BME280;43953;45.508;-122.806;2023-04-30T00:46:04;100361.50;;;30.34;23.99
50852;BME280;43953;45.508;-122.806;2023-04-30T00:46:36;100362.69;;;30.33;24.14
50852;BME280;43953;45.508;-122.806;2023-04-30T00:47:08;100364.66;;;30.32;24.01
50852;BME280;43953;45.508;-122.806;2023-04-30T00:47:40;100367.44;;;30.32;24.00
50852;BME280;43953;45.508;-122.806;2023-04-30T00:48:12;100365.00;;;30.31;24.10
50852;BME280;43953;45.508;-122.806;2023-04-30T00:48:44;100355.84;;;30.30;23.99
50852;BME280;43953;45.508;-122.806;2023-04-30T00:49:15;100358.63;;;30.30;23.97
50852;BME280;43953;45.508;-122.806;2023-04-30T00:49:47;100362.91;;;30.28;23.98
50852;BME280;43953;45.508;-122.806;2023-04-30T00:50:19;100362.13;;;30.27;23.89
50852;BME280;43953;45.508;-122.806;2023-04-30T00:50:51;100361.66;;;30.25;24.01
50852;BME280;43953;45.508;-122.806;2023-04-30T00:51:23;100361.22;;;30.23;24.00
50852;BME280;43953;45.508;-122.806;2023-04-30T00:51:54;100353.56;;;30.20;24.00
50852;BME280;43953;45.508;-122.806;2023-04-30T00:52:26;100354.69;;;30.19;24.29
50852;BME280;43953;45.508;-122.806;2023-04-30T00:52:58;100358.97;;;30.16;24.62
50852;BME280;43953;45.508;-122.806;2023-04-30T00:53:31;100353.78;;;30.15;24.65
50852;BME280;43953;45.508;-122.806;2023-04-30T00:54:04;100357.69;;;30.14;24.74
50852;BME280;43953;45.508;-122.806;2023-04-30T00:54:36;100359.22;;;30.11;24.86
50852;BME280;43953;45.508;-122.806;2023-04-30T00:55:12;100358.41;;;30.11;24.93
50852;BME280;43953;45.508;-122.806;2023-04-30T00:55:44;100352.84;;;30.11;24.84
50852;BME280;43953;45.508;-122.806;2023-04-30T00:56:16;100359.56;;;30.10;24.92
50852;BME280;43953;45.508;-122.806;2023-04-30T00:56:48;100351.25;;;30.10;24.98
50852;BME280;43953;45.508;-122.806;2023-04-30T00:57:20;100355.19;;;30.09;25.02
50852;BME280;43953;45.508;-122.806;2023-04-30T00:57:53;100361.88;;;30.08;24.99
50852;BME280;43953;45.508;-122.806;2023-04-30T00:58:25;100363.03;;;30.07;25.05
50852;BME280;43953;45.508;-122.806;2023-04-30T00:58:57;100355.88;;;30.06;25.32
50852;BME280;43953;45.508;-122.806;2023-04-30T00:59:29;100356.22;;;30.04;25.52
50852;BME280;43953;45.508;-122.806;2023-04-30T01:00:02;100354.63;;;30.03;25.81
50852;BME280;43953;45.508;-122.806;2023-04-30T01:00:34;100356.59;;;30.03;25.72
50852;BME280;43953;45.508;-122.806;2023-04-30T01:01:06;100352.53;;;30.00;25.85
50852;BME280;43953;45.508;-122.806;2023-04-30T01:01:38;100362.84;;;30.00;25.88
50852;BME280;43953;45.508;-122.806;2023-04-30T01:02:12;100359.59;;;29.98;25.99
50852;BME280;43953;45.508;-122.806;2023-04-30T01:02:43;100352.44;;;29.97;26.01
50852;BME280;43953;45.508;-122.806;2023-04-30T01:03:15;100353.56;;;29.96;26.04
50852;BME280;43953;45.508;-122.806;2023-04-30T01:03:47;100355.91;;;29.93;26.06
50852;BME280;43953;45.508;-122.806;2023-04-30T01:04:19;100356.72;;;29.94;26.27
50852;BME280;43953;45.508;-122.806;2023-04-30T01:04:51;100355.91;;;29.93;26.68
50852;BME280;43953;45.508;-122.806;2023-04-30T01:05:23;100362.59;;;29.92;26.34
50852;BME280;43953;45.508;-122.806;2023-04-30T01:05:54;100357.75;;;29.89;26.51
50852;BME280;43953;45.508;-122.806;2023-04-30T01:06:27;100354.50;;;29.87;27.15
50852;BME280;43953;45.508;-122.806;2023-04-30T01:06:59;100354.38;;;29.84;26.23
50852;BME280;43953;45.508;-122.806;2023-04-30T01:07:35;100362.97;;;29.79;25.97
50852;BME280;43953;45.508;-122.806;2023-04-30T01:08:16;100354.06;;;29.73;26.01
50852;BME280;43953;45.508;-122.806;2023-04-30T01:08:48;100358.66;;;29.69;26.08
50852;BME280;43953;45.508;-122.806;2023-04-30T01:09:20;100355.47;;;29.67;25.88
50852;BME280;43953;45.508;-122.806;2023-04-30T01:09:52;100358.56;;;29.65;26.53
50852;BME280;43953;45.508;-122.806;2023-04-30T01:10:31;100352.91;;;29.62;26.41
50852;BME280;43953;45.508;-122.806;2023-04-30T01:11:25;100361.53;;;29.60;26.57
50852;BME280;43953;45.508;-122.806;2023-04-30T01:12:53;100356.66;;;29.57;26.76
50852;BME280;43953;45.508;-122.806;2023-04-30T01:13:38;100357.38;;;29.54;26.86
50852;BME280;43953;45.508;-122.806;2023-04-30T01:14:27;100360.50;;;29.53;27.14
50852;BME280;43953;45.508;-122.806;2023-04-30T01:16:01;100353.31;;;29.52;27.26
50852;BME280;43953;45.508;-122.806;2023-04-30T01:17:08;100352.41;;;29.47;27.36
50852;BME280;43953;45.508;-122.806;2023-04-30T01:18:06;100352.28;;;29.44;27.18
50852;BME280;43953;45.508;-122.806;2023-04-30T01:18:51;100350.53;;;29.39;27.05
50852;BME280;43953;45.508;-122.806;2023-04-30T01:19:44;100346.38;;;29.33;27.08
50852;BME280;43953;45.508;-122.806;2023-04-30T01:20:17;100349.81;;;29.30;27.09
50852;BME280;43953;45.508;-122.806;2023-04-30T01:20:54;100344.16;;;29.27;27.36
50852;BME280;43953;45.508;-122.806;2023-04-30T01:21:27;100346.13;;;29.26;27.39
50852;BME280;43953;45.508;-122.806;2023-04-30T01:22:03;100343.69;;;29.24;27.31
50852;BME280;43953;45.508;-122.806;2023-04-30T01:25:12;100347.97;;;29.22;27.48
50852;BME280;43953;45.508;-122.806;2023-04-30T01:26:12;100341.97;;;29.20;27.66
50852;BME280;43953;45.508;-122.806;2023-04-30T01:28:16;100344.16;;;29.14;27.96
50852;BME280;43953;45.508;-122.806;2023-04-30T01:28:51;100347.25;;;29.13;27.80
50852;BME280;43953;45.508;-122.806;2023-04-30T01:29:23;100341.72;;;29.13;28.01
50852;BME280;43953;45.508;-122.806;2023-04-30T01:29:58;100346.44;;;29.12;28.03
50852;BME280;43953;45.508;-122.806;2023-04-30T01:30:33;100341.25;;;29.11;28.04
50852;BME280;43953;45.508;-122.806;2023-04-30T01:31:13;100348.75;;;29.10;27.99
50852;BME280;43953;45.508;-122.806;2023-04-30T01:31:45;100347.94;;;29.10;28.03
50852;BME280;43953;45.508;-122.806;2023-04-30T01:32:16;100344.72;;;29.08;28.26
50852;BME280;43953;45.508;-122.806;2023-04-30T01:32:48;100348.63;;;29.07;28.26
50852;BME280;43953;45.508;-122.806;2023-04-30T01:33:20;100347.00;;;29.06;28.44
50852;BME280;43953;45.508;-122.806;2023-04-30T01:33:52;100350.13;;;29.04;28.19
50852;BME280;43953;45.508;-122.806;2023-04-30T01:34:23;100345.72;;;29.03;28.38
50852;BME280;43953;45.508;-122.806;2023-04-30T01:34:55;100341.34;;;29.02;28.35
50852;BME280;43953;45.508;-122.806;2023-04-30T01:37:38;100348.56;;;28.94;28.27
50852;BME280;43953;45.508;-122.806;2023-04-30T01:38:20;100336.56;;;28.90;28.46
50852;BME280;43953;45.508;-122.806;2023-04-30T01:40:13;100345.97;;;28.77;28.53
50852;BME280;43953;45.508;-122.806;2023-04-30T01:41:37;100345.84;;;28.73;28.69
50852;BME280;43953;45.508;-122.806;2023-04-30T01:42:20;100342.25;;;28.73;28.86
50852;BME280;43953;45.508;-122.806;2023-04-30T01:43:08;100344.22;;;28.72;28.79
50852;BME280;43953;45.508;-122.806;2023-04-30T01:43:47;100343.06;;;28.73;28.99
50852;BME280;43953;45.508;-122.806;2023-04-30T01:44:28;100344.22;;;28.72;28.69
50852;BME280;43953;45.508;-122.806;2023-04-30T01:46:53;100335.31;;;28.67;29.24
50852;BME280;43953;45.508;-122.806;2023-04-30T01:49:41;100340.69;;;28.63;29.34
50852;BME280;43953;45.508;-122.806;2023-04-30T01:50:01;100335.72;;;28.56;29.02
50852;BME280;43953;45.508;-122.806;2023-04-30T01:50:43;100334.91;;;28.56;29.11
50852;BME280;43953;45.508;-122.806;2023-04-30T01:51:40;100345.06;;;28.52;29.14
50852;BME280;43953;45.508;-122.806;2023-04-30T01:52:28;100331.06;;;28.48;29.20
50852;BME280;43953;45.508;-122.806;2023-04-30T01:53:06;100336.59;;;28.48;29.05
50852;BME280;43953;45.508;-122.806;2023-04-30T01:53:41;100337.75;;;28.47;29.20
50852;BME280;43953;45.508;-122.806;2023-04-30T01:54:31;100329.81;;;28.46;29.47
50852;BME280;43953;45.508;-122.806;2023-04-30T01:55:34;100333.69;;;28.45;29.14
50852;BME280;43953;45.508;-122.806;2023-04-30T01:56:10;100332.91;;;28.44;29.13
50852;BME280;43953;45.508;-122.806;2023-04-30T01:56:57;100333.56;;;28.41;29.09
50852;BME280;43953;45.508;-122.806;2023-04-30T01:57:42;100323.63;;;28.40;29.05
50852;BME280;43953;45.508;-122.806;2023-04-30T01:58:15;100331.94;;;28.40;29.53
50852;BME280;43953;45.508;-122.806;2023-04-30T01:58:48;100326.41;;;28.40;29.38
50852;BME280;43953;45.508;-122.806;2023-04-30T01:59:21;100331.94;;;28.40;29.56
50852;BME280;43953;45.508;-122.806;2023-04-30T01:59:54;100331.94;;;28.40;29.33
50852;BME280;43953;45.508;-122.806;2023-04-30T02:00:27;100335.84;;;28.39;29.45
50852;BME280;43953;45.508;-122.806;2023-04-30T02:00:59;100329.16;;;28.40;29.50
50852;BME280;43953;45.508;-122.806;2023-04-30T02:01:31;100330.28;;;28.39;29.51
50852;BME280;43953;45.508;-122.806;2023-04-30T02:02:04;100328.69;;;28.38;29.42
50852;BME280;43953;45.508;-122.806;2023-04-30T02:02:36;100333.41;;;28.38;29.56
50852;BME280;43953;45.508;-122.806;2023-04-30T02:03:08;100330.97;;;28.36;29.60
50852;BME280;43953;45.508;-122.806;2023-04-30T02:03:40;100329.34;;;28.35;29.74
50852;BME280;43953;45.508;-122.806;2023-04-30T02:04:11;100329.34;;;28.35;29.54
50852;BME280;43953;45.508;-122.806;2023-04-30T02:04:43;100320.56;;;28.33;29.65
50852;BME280;43953;45.508;-122.806;2023-04-30T02:05:15;100334.41;;;28.33;29.45
50852;BME280;43953;45.508;-122.806;2023-04-30T02:05:48;100323.69;;;28.31;29.68
50852;BME280;43953;45.508;-122.806;2023-04-30T02:06:20;100324.81;;;28.30;29.13
50852;BME280;43953;45.508;-122.806;2023-04-30T02:06:52;100332.31;;;28.30;29.55
50852;BME280;43953;45.508;-122.806;2023-04-30T02:07:40;100318.03;;;28.28;29.75
50852;BME280;43953;45.508;-122.806;2023-04-30T02:08:12;100321.13;;;28.26;29.27
50852;BME280;43953;45.508;-122.806;2023-04-30T02:08:44;100314.78;;;28.26;29.50
50852;BME280;43953;45.508;-122.806;2023-04-30T02:09:16;100322.28;;;28.25;29.65
50852;BME280;43953;45.508;-122.806;2023-04-30T02:09:48;100317.88;;;28.24;29.39
50852;BME280;43953;45.508;-122.806;2023-04-30T02:10:24;100319.34;;;28.22;29.71
50852;BME280;43953;45.508;-122.806;2023-04-30T02:10:56;100318.53;;;28.21;29.45
50852;BME280;43953;45.508;-122.806;2023-04-30T02:11:28;100321.31;;;28.21;29.77
50852;BME280;43953;45.508;-122.806;2023-04-30T02:12:00;100318.53;;;28.21;29.70
50852;BME280;43953;45.508;-122.806;2023-04-30T02:12:33;100319.72;;;28.20;29.74
50852;BME280;43953;45.508;-122.806;2023-04-30T02:13:05;100325.56;;;28.19;29.49
50852;BME280;43953;45.508;-122.806;2023-04-30T02:13:37;100319.22;;;28.18;29.75
50852;BME280;43953;45.508;-122.806;2023-04-30T02:14:09;100322.00;;;28.18;29.79
50852;BME280;43953;45.508;-122.806;2023-04-30T02:14:41;100317.63;;;28.17;29.86
50852;BME280;43953;45.508;-122.806;2023-04-30T02:15:13;100320.38;;;28.17;29.85
50852;BME280;43953;45.508;-122.806;2023-04-30T02:15:45;100316.81;;;28.17;29.91
50852;BME280;43953;45.508;-122.806;2023-04-30T02:16:17;100314.38;;;28.15;29.63
50852;BME280;43953;45.508;-122.806;2023-04-30T02:16:48;100319.09;;;28.15;29.47
50852;BME280;43953;45.508;-122.806;2023-04-30T02:17:20;100321.38;;;28.12;29.82
50852;BME280;43953;45.508;-122.806;2023-04-30T02:17:52;100317.47;;;28.13;29.73
50852;BME280;43953;45.508;-122.806;2023-04-30T02:18:24;100321.06;;;28.14;29.59
50852;BME280;43953;45.508;-122.806;2023-04-30T02:18:55;100316.69;;;28.13;29.45
50852;BME280;43953;45.508;-122.806;2023-04-30T02:19:27;100318.63;;;28.12;29.74
50852;BME280;43953;45.508;-122.806;2023-04-30T02:19:59;100322.53;;;28.11;29.72
50852;BME280;43953;45.508;-122.806;2023-04-30T02:20:31;100313.44;;;28.11;29.54
50852;BME280;43953;45.508;-122.806;2023-04-30T02:21:03;100313.75;;;28.09;29.54
50852;BME280;43953;45.508;-122.806;2023-04-30T02:21:34;100327.59;;;28.09;29.53
50852;BME280;43953;45.508;-122.806;2023-04-30T02:22:06;100320.44;;;28.08;29.51
50852;BME280;43953;45.508;-122.806;2023-04-30T02:22:38;100318.84;;;28.07;29.48
50852;BME280;43953;45.508;-122.806;2023-04-30T02:23:09;100319.16;;;28.06;29.58
50852;BME280;43953;45.508;-122.806;2023-04-30T02:23:41;100316.38;;;28.06;29.85
50852;BME280;43953;45.508;-122.806;2023-04-30T02:24:13;100319.50;;;28.04;29.57
50852;BME280;43953;45.508;-122.806;2023-04-30T02:24:45;100322.59;;;28.03;29.53
50852;BME280;43953;45.508;-122.806;2023-04-30T02:25:16;100313.81;;;28.01;29.84
50852;BME280;43953;45.508;-122.806;2023-04-30T02:25:48;100319.69;;;27.99;29.79
50852;BME280;43953;45.508;-122.806;2023-04-30T02:26:20;100312.88;;;27.97;29.87
50852;BME280;43953;45.508;-122.806;2023-04-30T02:26:52;100312.06;;;27.96;29.95
50852;BME280;43953;45.508;-122.806;2023-04-30T02:27:25;100317.59;;;27.96;29.60
50852;BME280;43953;45.508;-122.806;2023-04-30T02:27:57;100319.09;;;27.94;29.59
50852;BME280;43953;45.508;-122.806;2023-04-30T02:28:28;100313.06;;;27.92;29.56
50852;BME280;43953;45.508;-122.806;2023-04-30T02:29:00;100318.94;;;27.90;29.55
50852;BME280;43953;45.508;-122.806;2023-04-30T02:29:32;100321.22;;;27.88;29.43
50852;BME280;43953;45.508;-122.806;2023-04-30T02:30:04;100319.63;;;27.87;29.38
50852;BME280;43953;45.508;-122.806;2023-04-30T02:30:37;100327.44;;;27.85;29.74
50852;BME280;43953;45.508;-122.806;2023-04-30T02:31:09;100325.81;;;27.84;29.79
50852;BME280;43953;45.508;-122.806;2023-04-30T02:31:41;100320.59;;;27.82;29.86
50852;BME280;43953;45.508;-122.806;2023-04-30T02:32:13;100320.13;;;27.80;30.21
50852;BME280;43953;45.508;-122.806;2023-04-30T02:32:45;100322.44;;;27.78;29.63
50852;BME280;43953;45.508;-122.806;2023-04-30T02:33:17;100323.06;;;27.75;29.70
50852;BME280;43953;45.508;-122.806;2023-04-30T02:33:48;100321.44;;;27.74;29.83
50852;BME280;43953;45.508;-122.806;2023-04-30T02:34:20;100316.25;;;27.73;29.61
50852;BME280;43953;45.508;-122.806;2023-04-30T02:34:52;100320.50;;;27.70;29.64
50852;BME280;43953;45.508;-122.806;2023-04-30T02:35:24;100318.03;;;27.68;29.35
50852;BME280;43953;45.508;-122.806;2023-04-30T02:35:57;100317.59;;;27.66;29.80
50852;BME280;43953;45.508;-122.806;2023-04-30T02:36:29;100318.72;;;27.65;29.56
50852;BME280;43953;45.508;-122.806;2023-04-30T02:37:03;100314.34;;;27.64;29.70
50852;BME280;43953;45.508;-122.806;2023-04-30T02:37:35;100321.34;;;27.62;29.83
50852;BME280;43953;45.508;-122.806;2023-04-30T02:38:07;100321.34;;;27.62;29.75
50852;BME280;43953;45.508;-122.806;2023-04-30T02:38:39;100316.16;;;27.60;29.76
50852;BME280;43953;45.508;-122.806;2023-04-30T02:39:10;100321.69;;;27.60;29.71
50852;BME280;43953;45.508;-122.806;2023-04-30T02:39:42;100318.44;;;27.58;29.69
50852;BME280;43953;45.508;-122.806;2023-04-30T02:40:14;100320.72;;;27.56;29.78
50852;BME280;43953;45.508;-122.806;2023-04-30T02:40:46;100319.09;;;27.55;29.82
50852;BME280;43953;45.508;-122.806;2023-04-30T02:41:17;100321.38;;;27.53;30.11
50852;BME280;43953;45.508;-122.806;2023-04-30T02:41:49;100322.53;;;27.52;30.18
50852;BME280;43953;45.508;-122.806;2023-04-30T02:42:21;100323.69;;;27.51;29.84
50852;BME280;43953;45.508;-122.806;2023-04-30T02:42:53;100315.72;;;27.50;29.66
50852;BME280;43953;45.508;-122.806;2023-04-30T02:43:26;100318.81;;;27.48;29.95
50852;BME280;43953;45.508;-122.806;2023-04-30T02:43:58;100322.72;;;27.47;30.12
50852;BME280;43953;45.508;-122.806;2023-04-30T02:44:30;100323.06;;;27.45;29.92
50852;BME280;43953;45.508;-122.806;2023-04-30T02:45:02;100320.97;;;27.42;29.93
50852;BME280;43953;45.508;-122.806;2023-04-30T02:45:34;100327.59;;;27.41;30.00
50852;BME280;43953;45.508;-122.806;2023-04-30T02:46:05;100324.38;;;27.39;30.03
50852;BME280;43953;45.508;-122.806;2023-04-30T02:46:37;100320.34;;;27.37;30.03
50852;BME280;43953;45.508;-122.806;2023-04-30T02:47:09;100321.44;;;27.36;29.92
50852;BME280;43953;45.508;-122.806;2023-04-30T02:47:41;100324.56;;;27.34;29.92
50852;BME280;43953;45.508;-122.806;2023-04-30T02:48:13;100327.66;;;27.33;30.18
50852;BME280;43953;45.508;-122.806;2023-04-30T02:48:44;100324.41;;;27.31;30.00
50852;BME280;43953;45.508;-122.806;2023-04-30T02:49:16;100329.16;;;27.30;30.18
50852;BME280;43953;45.508;-122.806;2023-04-30T02:49:48;100327.84;;;27.28;30.15
50852;BME280;43953;45.508;-122.806;2023-04-30T02:50:19;100328.16;;;27.26;29.98
50852;BME280;43953;45.508;-122.806;2023-04-30T02:50:51;100324.09;;;27.23;30.23
50852;BME280;43953;45.508;-122.806;2023-04-30T02:51:23;100326.88;;;27.23;30.00
50852;BME280;43953;45.508;-122.806;2023-04-30T02:51:55;100324.44;;;27.22;30.10
50852;BME280;43953;45.508;-122.806;2023-04-30T02:52:27;100325.56;;;27.21;29.94
50852;BME280;43953;45.508;-122.806;2023-04-30T02:52:58;100323.16;;;27.19;30.19
50852;BME280;43953;45.508;-122.806;2023-04-30T02:53:30;100321.84;;;27.17;30.27
50852;BME280;43953;45.508;-122.806;2023-04-30T02:54:02;100322.19;;;27.15;30.25
50852;BME280;43953;45.508;-122.806;2023-04-30T02:54:34;100326.06;;;27.14;30.45
50852;BME280;43953;45.508;-122.806;2023-04-30T02:55:06;100319.72;;;27.14;30.31
50852;BME280;43953;45.508;-122.806;2023-04-30T02:55:38;100319.59;;;27.10;30.02
50852;BME280;43953;45.508;-122.806;2023-04-30T02:56:10;100324.31;;;27.10;29.98
50852;BME280;43953;45.508;-122.806;2023-04-30T02:56:42;100324.13;;;27.06;30.24
50852;BME280;43953;45.508;-122.806;2023-04-30T02:57:14;100326.44;;;27.04;30.16
50852;BME280;43953;45.508;-122.806;2023-04-30T02:57:46;100323.97;;;27.03;30.15
50852;BME280;43953;45.508;-122.806;2023-04-30T02:58:18;100324.31;;;27.01;30.40
50852;BME280;43953;45.508;-122.806;2023-04-30T02:58:49;100332.13;;;26.99;30.44
50852;BME280;43953;45.508;-122.806;2023-04-30T02:59:21;100321.38;;;26.97;30.19
50852;BME280;43953;45.508;-122.806;2023-04-30T02:59:53;100327.75;;;26.98;30.03
50852;BME280;43953;45.508;-122.806;2023-04-30T03:00:25;100330.00;;;26.96;30.52
50852;BME280;43953;45.508;-122.806;2023-04-30T03:00:56;100331.47;;;26.93;30.12
50852;BME280;43953;45.508;-122.806;2023-04-30T03:01:28;100327.41;;;26.91;30.23
50852;BME280;43953;45.508;-122.806;2023-04-30T03:02:00;100332.13;;;26.90;30.44
50852;BME280;43953;45.508;-122.806;2023-04-30T03:02:32;100317.03;;;26.88;30.18